sensor_id;sensor_type;location;lat;lon;timestamp;P1;durP1;ratioP1;P2;durP2;ratioP2
51090;SDS011;37136;43.614;3.908;2022-09-27T00:01:10;1.55;;;0.80;;
51090;SDS011;37136;43.614;3.908;2022-09-27T00:03:37;4.25;;;1.13;;
51090;SDS011;37136;43.614;3.908;2022-09-27T00:06:05;2.42;;;0.77;;
51090;SDS011;37136;43.614;3.908;2022-09-27T00:08:33;4.93;;;1.20;;
51090;SDS011;37136;43.614;3.908;2022-09-27T00:11:01;8.70;;;1.80;;
51090;SDS011;37136;43.614;3.908;2022-09-27T00:13:29;3.78;;;1.02;;
51090;SDS011;37136;43.614;3.908;2022-09-27T00:15:59;2.85;;;1.17;;
51090;SDS011;37136;43.614;3.908;2022-09-27T00:18:28;1.88;;;0.80;;
51090;SDS011;37136;43.614;3.908;2022-09-27T00:20:55;8.05;;;1.15;;
51090;SDS011;37136;43.614;3.908;2022-09-27T00:23:21;2.88;;;0.90;;
51090;SDS011;37136;43.614;3.908;2022-09-27T00:25:53;1.67;;;1.02;;
51090;SDS011;37136;43.614;3.908;2022-09-27T00:28:23;4.30;;;1.13;;
51090;SDS011;37136;43.614;3.908;2022-09-27T00:30:49;2.97;;;0.85;;
51090;SDS011;37136;43.614;3.908;2022-09-27T00:33:15;2.45;;;1.00;;
51090;SDS011;37136;43.614;3.908;2022-09-27T00:35:41;3.78;;;1.27;;
51090;SDS011;37136;43.614;3.908;2022-09-27T00:38:08;5.45;;;0.75;;
51090;SDS011;37136;43.614;3.908;2022-09-27T00:40:34;2.50;;;0.90;;
51090;SDS011;37136;43.614;3.908;2022-09-27T00:43:00;5.38;;;0.90;;
51090;SDS011;37136;43.614;3.908;2022-09-27T00:45:26;5.75;;;0.88;;
51090;SDS011;37136;43.614;3.908;2022-09-27T00:47:53;1.00;;;0.68;;
51090;SDS011;37136;43.614;3.908;2022-09-27T00:53:09;4.22;;;1.00;;
51090;SDS011;37136;43.614;3.908;2022-09-27T00:55:41;2.45;;;0.70;;
51090;SDS011;37136;43.614;3.908;2022-09-27T00:58:11;4.25;;;1.00;;
51090;SDS011;37136;43.614;3.908;2022-09-27T01:00:39;2.95;;;0.80;;
51090;SDS011;37136;43.614;3.908;2022-09-27T01:03:09;2.80;;;0.60;;
51090;SDS011;37136;43.614;3.908;2022-09-27T01:05:39;3.38;;;0.85;;
51090;SDS011;37136;43.614;3.908;2022-09-27T01:08:05;3.40;;;1.00;;
51090;SDS011;37136;43.614;3.908;2022-09-27T01:10:33;2.55;;;0.47;;
51090;SDS011;37136;43.614;3.908;2022-09-27T01:13:15;3.45;;;1.00;;
51090;SDS011;37136;43.614;3.908;2022-09-27T01:15:48;2.53;;;0.68;;
51090;SDS011;37136;43.614;3.908;2022-09-27T01:21:02;4.72;;;0.90;;
51090;SDS011;37136;43.614;3.908;2022-09-27T01:23:44;4.93;;;0.93;;
51090;SDS011;37136;43.614;3.908;2022-09-27T01:32:08;2.55;;;0.73;;
51090;SDS011;37136;43.614;3.908;2022-09-27T01:34:43;2.58;;;1.10;;
51090;SDS011;37136;43.614;3.908;2022-09-27T01:37:23;3.85;;;0.60;;
51090;SDS011;37136;43.614;3.908;2022-09-27T01:45:27;1.92;;;0.40;;
51090;SDS011;37136;43.614;3.908;2022-09-27T01:47:56;1.38;;;0.50;;
51090;SDS011;37136;43.614;3.908;2022-09-27T01:50:45;1.45;;;0.35;;
51090;SDS011;37136;43.614;3.908;2022-09-27T01:55:44;4.28;;;0.50;;
51090;SDS011;37136;43.614;3.908;2022-09-27T01:58:16;1.38;;;0.57;;
51090;SDS011;37136;43.614;3.908;2022-09-27T02:00:43;2.67;;;0.70;;
51090;SDS011;37136;43.614;3.908;2022-09-27T02:03:14;1.65;;;0.55;;
51090;SDS011;37136;43.614;3.908;2022-09-27T02:05:50;1.75;;;0.63;;
51090;SDS011;37136;43.614;3.908;2022-09-27T02:11:13;2.13;;;0.73;;
51090;SDS011;37136;43.614;3.908;2022-09-27T02:13:48;2.50;;;0.57;;
51090;SDS011;37136;43.614;3.908;2022-09-27T02:24:46;2.58;;;0.90;;
51090;SDS011;37136;43.614;3.908;2022-09-27T02:27:37;4.78;;;0.73;;
51090;SDS011;37136;43.614;3.908;2022-09-27T02:30:27;3.72;;;0.80;;
51090;SDS011;37136;43.614;3.908;2022-09-27T02:32:53;3.13;;;0.55;;
51090;SDS011;37136;43.614;3.908;2022-09-27T02:37:58;3.35;;;0.63;;
51090;SDS011;37136;43.614;3.908;2022-09-27T02:40:25;2.67;;;0.90;;
51090;SDS011;37136;43.614;3.908;2022-09-27T02:42:57;1.17;;;0.50;;
51090;SDS011;37136;43.614;3.908;2022-09-27T02:45:24;1.58;;;0.60;;
51090;SDS011;37136;43.614;3.908;2022-09-27T02:48:07;6.85;;;1.00;;
51090;SDS011;37136;43.614;3.908;2022-09-27T02:59:27;2.60;;;0.60;;
51090;SDS011;37136;43.614;3.908;2022-09-27T03:07:31;2.45;;;0.40;;
51090;SDS011;37136;43.614;3.908;2022-09-27T03:09:56;0.60;;;0.30;;
51090;SDS011;37136;43.614;3.908;2022-09-27T03:12:22;1.92;;;0.50;;
51090;SDS011;37136;43.614;3.908;2022-09-27T03:14:54;0.40;;;0.40;;
51090;SDS011;37136;43.614;3.908;2022-09-27T03:17:22;3.47;;;0.40;;
51090;SDS011;37136;43.614;3.908;2022-09-27T03:19:48;1.98;;;0.40;;
51090;SDS011;37136;43.614;3.908;2022-09-27T03:22:14;2.40;;;0.40;;
51090;SDS011;37136;43.614;3.908;2022-09-27T03:24:40;1.83;;;0.60;;
51090;SDS011;37136;43.614;3.908;2022-09-27T03:27:06;2.10;;;0.35;;
51090;SDS011;37136;43.614;3.908;2022-09-27T03:29:32;1.15;;;0.40;;
51090;SDS011;37136;43.614;3.908;2022-09-27T03:31:57;2.33;;;0.90;;
51090;SDS011;37136;43.614;3.908;2022-09-27T03:34:23;3.03;;;1.00;;
51090;SDS011;37136;43.614;3.908;2022-09-27T03:36:49;3.83;;;0.77;;
51090;SDS011;37136;43.614;3.908;2022-09-27T03:39:15;2.50;;;0.70;;
51090;SDS011;37136;43.614;3.908;2022-09-27T03:41:40;4.20;;;0.80;;
51090;SDS011;37136;43.614;3.908;2022-09-27T03:44:06;2.00;;;0.60;;
51090;SDS011;37136;43.614;3.908;2022-09-27T03:46:32;2.08;;;0.70;;
51090;SDS011;37136;43.614;3.908;2022-09-27T03:48:58;2.92;;;0.80;;
51090;SDS011;37136;43.614;3.908;2022-09-27T03:51:24;2.75;;;1.13;;
51090;SDS011;37136;43.614;3.908;2022-09-27T03:53:51;5.13;;;1.55;;
51090;SDS011;37136;43.614;3.908;2022-09-27T03:56:17;4.28;;;0.82;;
51090;SDS011;37136;43.614;3.908;2022-09-27T03:58:43;7.82;;;1.67;;
51090;SDS011;37136;43.614;3.908;2022-09-27T04:01:09;6.07;;;0.95;;
51090;SDS011;37136;43.614;3.908;2022-09-27T04:03:35;7.47;;;1.10;;
51090;SDS011;37136;43.614;3.908;2022-09-27T04:06:02;2.60;;;1.05;;
51090;SDS011;37136;43.614;3.908;2022-09-27T04:08:28;5.82;;;1.45;;
51090;SDS011;37136;43.614;3.908;2022-09-27T04:10:55;8.52;;;1.40;;
51090;SDS011;37136;43.614;3.908;2022-09-27T04:13:21;9.55;;;1.65;;
51090;SDS011;37136;43.614;3.908;2022-09-27T04:15:47;6.88;;;1.42;;
51090;SDS011;37136;43.614;3.908;2022-09-27T04:18:13;7.90;;;1.63;;
51090;SDS011;37136;43.614;3.908;2022-09-27T04:20:39;7.07;;;1.88;;
51090;SDS011;37136;43.614;3.908;2022-09-27T04:23:05;7.88;;;1.48;;
51090;SDS011;37136;43.614;3.908;2022-09-27T04:25:31;4.20;;;1.20;;
51090;SDS011;37136;43.614;3.908;2022-09-27T04:27:57;7.00;;;1.30;;
51090;SDS011;37136;43.614;3.908;2022-09-27T04:30:25;10.98;;;1.25;;
51090;SDS011;37136;43.614;3.908;2022-09-27T04:32:51;11.05;;;1.40;;
51090;SDS011;37136;43.614;3.908;2022-09-27T04:35:17;8.75;;;2.35;;
51090;SDS011;37136;43.614;3.908;2022-09-27T04:38:02;5.03;;;1.65;;
51090;SDS011;37136;43.614;3.908;2022-09-27T04:40:27;7.68;;;1.63;;
51090;SDS011;37136;43.614;3.908;2022-09-27T04:42:54;4.50;;;1.10;;
51090;SDS011;37136;43.614;3.908;2022-09-27T04:45:20;4.40;;;1.40;;
51090;SDS011;37136;43.614;3.908;2022-09-27T04:47:47;7.53;;;1.65;;
51090;SDS011;37136;43.614;3.908;2022-09-27T04:50:14;7.25;;;1.70;;
51090;SDS011;37136;43.614;3.908;2022-09-27T04:52:41;10.07;;;1.70;;
51090;SDS011;37136;43.614;3.908;2022-09-27T04:55:08;8.23;;;1.88;;
51090;SDS011;37136;43.614;3.908;2022-09-27T04:57:35;5.97;;;1.58;;
51090;SDS011;37136;43.614;3.908;2022-09-27T05:00:01;7.50;;;1.48;;
51090;SDS011;37136;43.614;3.908;2022-09-27T05:02:28;9.57;;;1.73;;
51090;SDS011;37136;43.614;3.908;2022-09-27T05:04:54;8.55;;;2.00;;
51090;SDS011;37136;43.614;3.908;2022-09-27T05:07:26;12.98;;;2.80;;
51090;SDS011;37136;43.614;3.908;2022-09-27T05:09:53;9.70;;;1.55;;
51090;SDS011;37136;43.614;3.908;2022-09-27T05:12:19;8.25;;;1.58;;
51090;SDS011;37136;43.614;3.908;2022-09-27T05:14:45;8.27;;;1.92;;
51090;SDS011;37136;43.614;3.908;2022-09-27T05:17:11;10.18;;;1.85;;
51090;SDS011;37136;43.614;3.908;2022-09-27T05:19:38;7.13;;;1.90;;
51090;SDS011;37136;43.614;3.908;2022-09-27T05:22:04;7.82;;;2.03;;
51090;SDS011;37136;43.614;3.908;2022-09-27T05:24:31;8.77;;;1.58;;
51090;SDS011;37136;43.614;3.908;2022-09-27T05:27:00;12.32;;;1.77;;
51090;SDS011;37136;43.614;3.908;2022-09-27T05:29:26;17.30;;;2.33;;
51090;SDS011;37136;43.614;3.908;2022-09-27T05:31:52;8.35;;;2.53;;
51090;SDS011;37136;43.614;3.908;2022-09-27T05:34:18;7.45;;;1.85;;
51090;SDS011;37136;43.614;3.908;2022-09-27T05:36:47;12.35;;;1.98;;
51090;SDS011;37136;43.614;3.908;2022-09-27T05:44:08;11.52;;;1.98;;
51090;SDS011;37136;43.614;3.908;2022-09-27T05:46:34;7.60;;;2.00;;
51090;SDS011;37136;43.614;3.908;2022-09-27T05:49:00;15.23;;;2.47;;
51090;SDS011;37136;43.614;3.908;2022-09-27T05:51:25;10.75;;;1.60;;
51090;SDS011;37136;43.614;3.908;2022-09-27T05:53:52;13.43;;;2.22;;
51090;SDS011;37136;43.614;3.908;2022-09-27T05:56:18;7.65;;;1.60;;
51090;SDS011;37136;43.614;3.908;2022-09-27T05:58:43;13.93;;;2.40;;
51090;SDS011;37136;43.614;3.908;2022-09-27T06:01:10;9.00;;;2.50;;
51090;SDS011;37136;43.614;3.908;2022-09-27T06:03:35;10.20;;;2.45;;
51090;SDS011;37136;43.614;3.908;2022-09-27T06:06:02;17.13;;;2.17;;
51090;SDS011;37136;43.614;3.908;2022-09-27T06:08:33;8.77;;;2.33;;
51090;SDS011;37136;43.614;3.908;2022-09-27T06:11:00;10.57;;;2.15;;
51090;SDS011;37136;43.614;3.908;2022-09-27T06:13:30;9.77;;;3.00;;
51090;SDS011;37136;43.614;3.908;2022-09-27T06:16:07;15.10;;;2.42;;
51090;SDS011;37136;43.614;3.908;2022-09-27T06:18:35;12.50;;;2.47;;
51090;SDS011;37136;43.614;3.908;2022-09-27T06:21:01;15.25;;;3.05;;
51090;SDS011;37136;43.614;3.908;2022-09-27T06:23:28;8.93;;;2.40;;
51090;SDS011;37136;43.614;3.908;2022-09-27T06:26:05;12.57;;;2.00;;
51090;SDS011;37136;43.614;3.908;2022-09-27T06:28:32;9.88;;;2.05;;
51090;SDS011;37136;43.614;3.908;2022-09-27T06:33:29;15.02;;;3.50;;
51090;SDS011;37136;43.614;3.908;2022-09-27T06:35:56;8.50;;;2.08;;
51090;SDS011;37136;43.614;3.908;2022-09-27T06:38:29;7.93;;;1.70;;
51090;SDS011;37136;43.614;3.908;2022-09-27T06:40:55;12.63;;;2.33;;
51090;SDS011;37136;43.614;3.908;2022-09-27T06:43:25;7.00;;;1.92;;
51090;SDS011;37136;43.614;3.908;2022-09-27T06:45:52;10.20;;;2.28;;
51090;SDS011;37136;43.614;3.908;2022-09-27T06:48:18;11.55;;;2.13;;
51090;SDS011;37136;43.614;3.908;2022-09-27T06:50:44;8.75;;;1.80;;
51090;SDS011;37136;43.614;3.908;2022-09-27T06:53:14;8.35;;;2.17;;
51090;SDS011;37136;43.614;3.908;2022-09-27T06:55:41;12.82;;;2.50;;
51090;SDS011;37136;43.614;3.908;2022-09-27T06:58:08;11.15;;;2.75;;
51090;SDS011;37136;43.614;3.908;2022-09-27T07:00:53;7.32;;;1.90;;
51090;SDS011;37136;43.614;3.908;2022-09-27T07:03:20;9.82;;;2.28;;
51090;SDS011;37136;43.614;3.908;2022-09-27T07:05:54;12.50;;;2.38;;
51090;SDS011;37136;43.614;3.908;2022-09-27T07:08:21;8.80;;;2.35;;
51090;SDS011;37136;43.614;3.908;2022-09-27T07:10:47;8.98;;;2.05;;
51090;SDS011;37136;43.614;3.908;2022-09-27T07:13:14;6.80;;;1.90;;
51090;SDS011;37136;43.614;3.908;2022-09-27T07:15:40;7.35;;;1.50;;
51090;SDS011;37136;43.614;3.908;2022-09-27T07:18:06;7.38;;;1.98;;
51090;SDS011;37136;43.614;3.908;2022-09-27T07:20:33;9.95;;;1.65;;
51090;SDS011;37136;43.614;3.908;2022-09-27T07:23:06;6.13;;;1.45;;
51090;SDS011;37136;43.614;3.908;2022-09-27T07:25:33;5.95;;;1.50;;
51090;SDS011;37136;43.614;3.908;2022-09-27T07:28:02;7.78;;;1.90;;
51090;SDS011;37136;43.614;3.908;2022-09-27T07:30:30;8.73;;;1.80;;
51090;SDS011;37136;43.614;3.908;2022-09-27T07:32:57;12.93;;;2.35;;
51090;SDS011;37136;43.614;3.908;2022-09-27T07:35:24;8.10;;;2.25;;
51090;SDS011;37136;43.614;3.908;2022-09-27T07:37:51;10.55;;;2.00;;
51090;SDS011;37136;43.614;3.908;2022-09-27T07:40:17;7.18;;;1.98;;
51090;SDS011;37136;43.614;3.908;2022-09-27T07:42:43;8.93;;;1.90;;
51090;SDS011;37136;43.614;3.908;2022-09-27T07:45:10;8.50;;;1.95;;
51090;SDS011;37136;43.614;3.908;2022-09-27T07:47:39;10.18;;;1.90;;
51090;SDS011;37136;43.614;3.908;2022-09-27T07:50:06;8.07;;;1.92;;
51090;SDS011;37136;43.614;3.908;2022-09-27T07:52:38;11.57;;;2.17;;
51090;SDS011;37136;43.614;3.908;2022-09-27T07:55:05;6.60;;;1.38;;
51090;SDS011;37136;43.614;3.908;2022-09-27T07:57:32;7.65;;;1.98;;
51090;SDS011;37136;43.614;3.908;2022-09-27T07:59:58;9.90;;;1.38;;
51090;SDS011;37136;43.614;3.908;2022-09-27T08:02:24;4.35;;;1.33;;
51090;SDS011;37136;43.614;3.908;2022-09-27T08:04:49;12.48;;;1.65;;
51090;SDS011;37136;43.614;3.908;2022-09-27T08:07:16;9.10;;;1.48;;
51090;SDS011;37136;43.614;3.908;2022-09-27T08:09:42;8.65;;;1.60;;
51090;SDS011;37136;43.614;3.908;2022-09-27T08:12:08;8.10;;;1.67;;
51090;SDS011;37136;43.614;3.908;2022-09-27T08:14:34;15.90;;;1.67;;
51090;SDS011;37136;43.614;3.908;2022-09-27T08:17:00;6.32;;;2.00;;
51090;SDS011;37136;43.614;3.908;2022-09-27T08:19:26;10.57;;;1.95;;
51090;SDS011;37136;43.614;3.908;2022-09-27T08:21:52;7.97;;;1.92;;
51090;SDS011;37136;43.614;3.908;2022-09-27T08:24:20;8.60;;;1.73;;
51090;SDS011;37136;43.614;3.908;2022-09-27T08:26:46;8.70;;;1.77;;
51090;SDS011;37136;43.614;3.908;2022-09-27T08:29:12;5.88;;;1.50;;
51090;SDS011;37136;43.614;3.908;2022-09-27T08:31:38;9.23;;;2.55;;
51090;SDS011;37136;43.614;3.908;2022-09-27T08:34:04;8.10;;;1.80;;
51090;SDS011;37136;43.614;3.908;2022-09-27T08:36:29;8.98;;;2.22;;
51090;SDS011;37136;43.614;3.908;2022-09-27T08:38:56;4.78;;;1.80;;
51090;SDS011;37136;43.614;3.908;2022-09-27T08:47:16;7.40;;;2.05;;
51090;SDS011;37136;43.614;3.908;2022-09-27T08:49:51;11.75;;;2.10;;
51090;SDS011;37136;43.614;3.908;2022-09-27T08:52:31;6.90;;;1.55;;
51090;SDS011;37136;43.614;3.908;2022-09-27T08:55:02;12.38;;;2.30;;
51090;SDS011;37136;43.614;3.908;2022-09-27T08:57:32;13.73;;;2.22;;
51090;SDS011;37136;43.614;3.908;2022-09-27T09:00:03;15.05;;;2.25;;
51090;SDS011;37136;43.614;3.908;2022-09-27T09:02:33;9.38;;;2.00;;
51090;SDS011;37136;43.614;3.908;2022-09-27T09:05:02;11.18;;;2.00;;
51090;SDS011;37136;43.614;3.908;2022-09-27T09:10:47;13.95;;;3.08;;
51090;SDS011;37136;43.614;3.908;2022-09-27T09:13:51;14.85;;;3.03;;
51090;SDS011;37136;43.614;3.908;2022-09-27T09:22:23;7.40;;;1.90;;
51090;SDS011;37136;43.614;3.908;2022-09-27T09:30:51;12.43;;;2.17;;
51090;SDS011;37136;43.614;3.908;2022-09-27T09:33:35;6.78;;;2.25;;
51090;SDS011;37136;43.614;3.908;2022-09-27T09:36:13;9.80;;;2.45;;
51090;SDS011;37136;43.614;3.908;2022-09-27T09:39:07;12.25;;;2.75;;
51090;SDS011;37136;43.614;3.908;2022-09-27T09:44:23;12.88;;;2.10;;
51090;SDS011;37136;43.614;3.908;2022-09-27T09:46:58;11.23;;;2.17;;
51090;SDS011;37136;43.614;3.908;2022-09-27T09:52:15;8.88;;;2.75;;
51090;SDS011;37136;43.614;3.908;2022-09-27T09:54:51;7.57;;;1.92;;
51090;SDS011;37136;43.614;3.908;2022-09-27T10:00:19;10.15;;;2.35;;
51090;SDS011;37136;43.614;3.908;2022-09-27T10:02:45;11.07;;;2.20;;
51090;SDS011;37136;43.614;3.908;2022-09-27T10:05:14;10.03;;;2.47;;
51090;SDS011;37136;43.614;3.908;2022-09-27T10:07:43;9.43;;;2.53;;
51090;SDS011;37136;43.614;3.908;2022-09-27T10:10:14;8.55;;;1.80;;
51090;SDS011;37136;43.614;3.908;2022-09-27T10:12:41;11.57;;;2.78;;
51090;SDS011;37136;43.614;3.908;2022-09-27T10:15:15;10.13;;;2.78;;
51090;SDS011;37136;43.614;3.908;2022-09-27T10:17:57;9.10;;;2.13;;
51090;SDS011;37136;43.614;3.908;2022-09-27T10:23:26;9.98;;;2.00;;
51090;SDS011;37136;43.614;3.908;2022-09-27T10:26:02;9.55;;;2.63;;
51090;SDS011;37136;43.614;3.908;2022-09-27T10:30:57;11.90;;;2.63;;
51090;SDS011;37136;43.614;3.908;2022-09-27T10:34:04;13.10;;;2.55;;
51090;SDS011;37136;43.614;3.908;2022-09-27T10:36:33;5.72;;;1.90;;
51090;SDS011;37136;43.614;3.908;2022-09-27T10:39:01;12.13;;;2.33;;
51090;SDS011;37136;43.614;3.908;2022-09-27T10:41:35;8.30;;;2.17;;
51090;SDS011;37136;43.614;3.908;2022-09-27T10:44:24;10.05;;;2.28;;
51090;SDS011;37136;43.614;3.908;2022-09-27T10:46:53;8.60;;;2.33;;
51090;SDS011;37136;43.614;3.908;2022-09-27T10:52:06;5.70;;;1.92;;
51090;SDS011;37136;43.614;3.908;2022-09-27T10:54:40;7.28;;;2.00;;
51090;SDS011;37136;43.614;3.908;2022-09-27T10:59:39;15.50;;;1.95;;
51090;SDS011;37136;43.614;3.908;2022-09-27T11:02:41;9.93;;;2.13;;
51090;SDS011;37136;43.614;3.908;2022-09-27T11:08:23;8.65;;;2.25;;
51090;SDS011;37136;43.614;3.908;2022-09-27T11:13:38;8.88;;;2.05;;
51090;SDS011;37136;43.614;3.908;2022-09-27T11:18:46;11.30;;;3.22;;
51090;SDS011;37136;43.614;3.908;2022-09-27T11:56:05;8.52;;;2.33;;
51090;SDS011;37136;43.614;3.908;2022-09-27T12:01:44;4.63;;;1.90;;
51090;SDS011;37136;43.614;3.908;2022-09-27T12:07:02;7.75;;;1.80;;
51090;SDS011;37136;43.614;3.908;2022-09-27T12:09:42;10.50;;;2.28;;
51090;SDS011;37136;43.614;3.908;2022-09-27T12:12:17;9.07;;;1.70;;
51090;SDS011;37136;43.614;3.908;2022-09-27T12:14:47;4.47;;;1.88;;
51090;SDS011;37136;43.614;3.908;2022-09-27T12:17:26;8.55;;;2.10;;
51090;SDS011;37136;43.614;3.908;2022-09-27T12:19:56;13.13;;;2.25;;
51090;SDS011;37136;43.614;3.908;2022-09-27T12:22:28;8.68;;;1.88;;
51090;SDS011;37136;43.614;3.908;2022-09-27T12:24:58;9.27;;;1.88;;
51090;SDS011;37136;43.614;3.908;2022-09-27T12:30:10;4.85;;;1.92;;
51090;SDS011;37136;43.614;3.908;2022-09-27T12:32:44;6.72;;;1.52;;
51090;SDS011;37136;43.614;3.908;2022-09-27T12:35:21;10.70;;;2.08;;
51090;SDS011;37136;43.614;3.908;2022-09-27T12:38:12;16.52;;;2.30;;
51090;SDS011;37136;43.614;3.908;2022-09-27T12:40:39;9.02;;;2.10;;
51090;SDS011;37136;43.614;3.908;2022-09-27T12:43:08;7.13;;;1.83;;
51090;SDS011;37136;43.614;3.908;2022-09-27T12:51:22;8.32;;;2.25;;
51090;SDS011;37136;43.614;3.908;2022-09-27T12:53:53;9.57;;;1.65;;
51090;SDS011;37136;43.614;3.908;2022-09-27T12:59:09;10.20;;;2.40;;
51090;SDS011;37136;43.614;3.908;2022-09-27T13:12:48;6.78;;;1.58;;
51090;SDS011;37136;43.614;3.908;2022-09-27T13:17:53;3.35;;;1.13;;
51090;SDS011;37136;43.614;3.908;2022-09-27T13:22:55;6.10;;;1.63;;
51090;SDS011;37136;43.614;3.908;2022-09-27T13:31:00;5.80;;;1.33;;
51090;SDS011;37136;43.614;3.908;2022-09-27T13:33:40;4.20;;;1.10;;
51090;SDS011;37136;43.614;3.908;2022-09-27T13:44:25;11.23;;;1.30;;
51090;SDS011;37136;43.614;3.908;2022-09-27T13:53:03;8.02;;;1.10;;
51090;SDS011;37136;43.614;3.908;2022-09-27T13:55:46;5.15;;;1.13;;
51090;SDS011;37136;43.614;3.908;2022-09-27T14:00:58;5.03;;;2.13;;
51090;SDS011;37136;43.614;3.908;2022-09-27T14:03:34;7.63;;;1.50;;
51090;SDS011;37136;43.614;3.908;2022-09-27T14:06:22;7.60;;;1.30;;
51090;SDS011;37136;43.614;3.908;2022-09-27T14:09:04;8.70;;;1.30;;
51090;SDS011;37136;43.614;3.908;2022-09-27T14:11:33;4.95;;;1.15;;
51090;SDS011;37136;43.614;3.908;2022-09-27T14:14:03;6.15;;;1.38;;
51090;SDS011;37136;43.614;3.908;2022-09-27T14:16:32;20.45;;;1.65;;
51090;SDS011;37136;43.614;3.908;2022-09-27T14:19:00;6.75;;;1.85;;
51090;SDS011;37136;43.614;3.908;2022-09-27T14:21:28;9.18;;;1.00;;
51090;SDS011;37136;43.614;3.908;2022-09-27T14:26:50;8.38;;;1.45;;
51090;SDS011;37136;43.614;3.908;2022-09-27T14:29:52;5.20;;;1.50;;
51090;SDS011;37136;43.614;3.908;2022-09-27T14:32:25;6.75;;;1.38;;
51090;SDS011;37136;43.614;3.908;2022-09-27T14:35:05;4.60;;;1.08;;
51090;SDS011;37136;43.614;3.908;2022-09-27T14:37:51;4.28;;;1.55;;
51090;SDS011;37136;43.614;3.908;2022-09-27T14:40:19;5.82;;;1.10;;
51090;SDS011;37136;43.614;3.908;2022-09-27T14:42:46;5.50;;;1.23;;
51090;SDS011;37136;43.614;3.908;2022-09-27T14:45:19;6.88;;;1.27;;
51090;SDS011;37136;43.614;3.908;2022-09-27T14:47:46;7.30;;;0.90;;
51090;SDS011;37136;43.614;3.908;2022-09-27T14:50:48;7.55;;;1.00;;
51090;SDS011;37136;43.614;3.908;2022-09-27T14:53:18;4.10;;;0.88;;
51090;SDS011;37136;43.614;3.908;2022-09-27T14:55:47;3.90;;;0.85;;
51090;SDS011;37136;43.614;3.908;2022-09-27T14:58:13;5.28;;;0.90;;
51090;SDS011;37136;43.614;3.908;2022-09-27T15:00:39;2.15;;;0.63;;
51090;SDS011;37136;43.614;3.908;2022-09-27T15:03:11;2.03;;;0.75;;
51090;SDS011;37136;43.614;3.908;2022-09-27T15:06:04;8.75;;;0.93;;
51090;SDS011;37136;43.614;3.908;2022-09-27T15:08:30;7.25;;;0.88;;
51090;SDS011;37136;43.614;3.908;2022-09-27T15:11:00;5.72;;;0.95;;
51090;SDS011;37136;43.614;3.908;2022-09-27T15:13:29;4.75;;;0.93;;
51090;SDS011;37136;43.614;3.908;2022-09-27T15:15:56;4.57;;;1.00;;
51090;SDS011;37136;43.614;3.908;2022-09-27T15:18:30;4.85;;;0.70;;
51090;SDS011;37136;43.614;3.908;2022-09-27T15:20:56;9.07;;;1.25;;
51090;SDS011;37136;43.614;3.908;2022-09-27T15:23:27;2.63;;;0.80;;
51090;SDS011;37136;43.614;3.908;2022-09-27T15:25:57;4.40;;;0.65;;
51090;SDS011;37136;43.614;3.908;2022-09-27T15:28:28;3.70;;;0.80;;
51090;SDS011;37136;43.614;3.908;2022-09-27T15:30:55;5.55;;;0.70;;
51090;SDS011;37136;43.614;3.908;2022-09-27T15:33:27;6.63;;;0.80;;
51090;SDS011;37136;43.614;3.908;2022-09-27T15:35:57;1.70;;;0.70;;
51090;SDS011;37136;43.614;3.908;2022-09-27T15:38:29;3.15;;;0.90;;
51090;SDS011;37136;43.614;3.908;2022-09-27T15:40:57;4.78;;;0.90;;
51090;SDS011;37136;43.614;3.908;2022-09-27T15:43:31;13.35;;;1.33;;
51090;SDS011;37136;43.614;3.908;2022-09-27T15:46:03;11.57;;;1.40;;
51090;SDS011;37136;43.614;3.908;2022-09-27T15:51:50;5.28;;;1.00;;
51090;SDS011;37136;43.614;3.908;2022-09-27T15:54:20;4.07;;;1.05;;
51090;SDS011;37136;43.614;3.908;2022-09-27T15:56:47;2.20;;;0.60;;
51090;SDS011;37136;43.614;3.908;2022-09-27T15:59:25;3.55;;;0.70;;
51090;SDS011;37136;43.614;3.908;2022-09-27T16:01:55;2.75;;;0.80;;
51090;SDS011;37136;43.614;3.908;2022-09-27T16:04:23;2.33;;;0.52;;
51090;SDS011;37136;43.614;3.908;2022-09-27T16:06:50;4.90;;;0.90;;
51090;SDS011;37136;43.614;3.908;2022-09-27T16:09:18;2.75;;;0.68;;
51090;SDS011;37136;43.614;3.908;2022-09-27T16:11:45;3.40;;;0.70;;
51090;SDS011;37136;43.614;3.908;2022-09-27T16:14:15;3.15;;;1.00;;
51090;SDS011;37136;43.614;3.908;2022-09-27T16:16:47;2.97;;;0.77;;
51090;SDS011;37136;43.614;3.908;2022-09-27T16:19:15;4.07;;;0.60;;
51090;SDS011;37136;43.614;3.908;2022-09-27T16:21:41;1.85;;;0.70;;
51090;SDS011;37136;43.614;3.908;2022-09-27T16:24:10;1.27;;;0.82;;
51090;SDS011;37136;43.614;3.908;2022-09-27T16:29:03;1.83;;;0.82;;
51090;SDS011;37136;43.614;3.908;2022-09-27T16:31:32;1.55;;;0.52;;
51090;SDS011;37136;43.614;3.908;2022-09-27T16:34:00;5.95;;;0.77;;
51090;SDS011;37136;43.614;3.908;2022-09-27T16:36:25;3.83;;;0.75;;
51090;SDS011;37136;43.614;3.908;2022-09-27T16:38:52;1.80;;;0.80;;
51090;SDS011;37136;43.614;3.908;2022-09-27T16:41:19;1.60;;;0.60;;
51090;SDS011;37136;43.614;3.908;2022-09-27T16:43:46;3.88;;;1.00;;
51090;SDS011;37136;43.614;3.908;2022-09-27T16:46:13;3.65;;;0.90;;
51090;SDS011;37136;43.614;3.908;2022-09-27T16:48:43;2.90;;;0.65;;
51090;SDS011;37136;43.614;3.908;2022-09-27T16:51:16;2.30;;;0.90;;
51090;SDS011;37136;43.614;3.908;2022-09-27T16:54:02;1.55;;;0.80;;
51090;SDS011;37136;43.614;3.908;2022-09-27T16:56:30;5.47;;;0.85;;
51090;SDS011;37136;43.614;3.908;2022-09-27T16:58:57;5.88;;;0.80;;
51090;SDS011;37136;43.614;3.908;2022-09-27T17:01:24;2.97;;;0.70;;
51090;SDS011;37136;43.614;3.908;2022-09-27T17:03:50;3.25;;;1.77;;
51090;SDS011;37136;43.614;3.908;2022-09-27T17:06:17;9.27;;;0.95;;
51090;SDS011;37136;43.614;3.908;2022-09-27T17:08:43;2.25;;;0.93;;
51090;SDS011;37136;43.614;3.908;2022-09-27T17:11:13;7.22;;;0.75;;
51090;SDS011;37136;43.614;3.908;2022-09-27T17:13:41;4.00;;;1.02;;
51090;SDS011;37136;43.614;3.908;2022-09-27T17:16:08;3.53;;;0.80;;
51090;SDS011;37136;43.614;3.908;2022-09-27T17:18:36;1.77;;;0.73;;
51090;SDS011;37136;43.614;3.908;2022-09-27T17:21:03;7.28;;;1.30;;
51090;SDS011;37136;43.614;3.908;2022-09-27T17:23:30;3.65;;;1.00;;
51090;SDS011;37136;43.614;3.908;2022-09-27T17:28:56;5.97;;;0.95;;
51090;SDS011;37136;43.614;3.908;2022-09-27T17:31:23;4.55;;;1.00;;
51090;SDS011;37136;43.614;3.908;2022-09-27T17:33:50;16.50;;;0.90;;
51090;SDS011;37136;43.614;3.908;2022-09-27T17:36:23;6.18;;;0.90;;
51090;SDS011;37136;43.614;3.908;2022-09-27T17:38:51;2.63;;;0.80;;
51090;SDS011;37136;43.614;3.908;2022-09-27T17:41:21;2.55;;;0.70;;
51090;SDS011;37136;43.614;3.908;2022-09-27T17:43:51;6.53;;;1.10;;
51090;SDS011;37136;43.614;3.908;2022-09-27T17:46:52;3.47;;;0.77;;
51090;SDS011;37136;43.614;3.908;2022-09-27T17:49:11;3.40;;;0.60;;
51090;SDS011;37136;43.614;3.908;2022-09-27T17:51:56;6.90;;;1.00;;
51090;SDS011;37136;43.614;3.908;2022-09-27T17:54:22;1.63;;;0.77;;
51090;SDS011;37136;43.614;3.908;2022-09-27T17:56:51;5.47;;;1.00;;
51090;SDS011;37136;43.614;3.908;2022-09-27T17:59:18;2.83;;;0.70;;
51090;SDS011;37136;43.614;3.908;2022-09-27T18:01:44;3.33;;;0.98;;
51090;SDS011;37136;43.614;3.908;2022-09-27T18:04:12;3.35;;;0.52;;
51090;SDS011;37136;43.614;3.908;2022-09-27T18:06:40;2.72;;;0.82;;
51090;SDS011;37136;43.614;3.908;2022-09-27T18:09:07;2.28;;;0.50;;
51090;SDS011;37136;43.614;3.908;2022-09-27T18:11:35;2.85;;;0.90;;
51090;SDS011;37136;43.614;3.908;2022-09-27T18:14:02;4.07;;;0.98;;
51090;SDS011;37136;43.614;3.908;2022-09-27T18:16:29;3.75;;;1.40;;
51090;SDS011;37136;43.614;3.908;2022-09-27T18:18:59;3.42;;;0.88;;
51090;SDS011;37136;43.614;3.908;2022-09-27T18:21:26;7.32;;;1.00;;
51090;SDS011;37136;43.614;3.908;2022-09-27T18:23:54;5.25;;;1.13;;
51090;SDS011;37136;43.614;3.908;2022-09-27T18:26:21;3.45;;;0.80;;
51090;SDS011;37136;43.614;3.908;2022-09-27T18:28:48;3.38;;;1.25;;